sensor_id;sensor_type;location;lat;lon;timestamp;P1;durP1;ratioP1;P2;durP2;ratioP2
59006;SDS011;44792;52.760;6.726;2023-08-01T00:00:24;14.43;;;5.55;;
59006;SDS011;44792;52.760;6.726;2023-08-01T00:02:50;7.93;;;5.57;;
59006;SDS011;44792;52.760;6.726;2023-08-01T00:05:16;12.57;;;5.30;;
59006;SDS011;44792;52.760;6.726;2023-08-01T00:07:42;14.13;;;5.97;;
59006;SDS011;44792;52.760;6.726;2023-08-01T00:10:07;9.23;;;5.70;;
59006;SDS011;44792;52.760;6.726;2023-08-01T00:12:33;8.82;;;6.22;;
59006;SDS011;44792;52.760;6.726;2023-08-01T00:14:59;13.73;;;6.55;;
59006;SDS011;44792;52.760;6.726;2023-08-01T00:17:25;8.05;;;5.45;;
59006;SDS011;44792;52.760;6.726;2023-08-01T00:19:51;9.98;;;5.03;;
59006;SDS011;44792;52.760;6.726;2023-08-01T00:22:16;8.50;;;5.35;;
59006;SDS011;44792;52.760;6.726;2023-08-01T00:24:42;11.80;;;5.97;;
59006;SDS011;44792;52.760;6.726;2023-08-01T00:27:08;10.77;;;6.13;;
59006;SDS011;44792;52.760;6.726;2023-08-01T00:29:35;10.98;;;6.18;;
59006;SDS011;44792;52.760;6.726;2023-08-01T00:32:01;10.57;;;6.47;;
59006;SDS011;44792;52.760;6.726;2023-08-01T00:34:27;9.48;;;5.63;;
59006;SDS011;44792;52.760;6.726;2023-08-01T00:36:53;9.85;;;5.18;;
59006;SDS011;44792;52.760;6.726;2023-08-01T00:39:18;16.63;;;5.93;;
59006;SDS011;44792;52.760;6.726;2023-08-01T00:41:44;14.90;;;6.88;;
59006;SDS011;44792;52.760;6.726;2023-08-01T00:44:10;10.30;;;5.68;;
59006;SDS011;44792;52.760;6.726;2023-08-01T00:46:35;10.98;;;6.43;;
59006;SDS011;44792;52.760;6.726;2023-08-01T00:49:02;6.90;;;5.50;;
59006;SDS011;44792;52.760;6.726;2023-08-01T00:51:28;10.23;;;6.18;;
59006;SDS011;44792;52.760;6.726;2023-08-01T00:53:56;11.38;;;5.88;;
59006;SDS011;44792;52.760;6.726;2023-08-01T00:56:23;7.63;;;5.32;;
59006;SDS011;44792;52.760;6.726;2023-08-01T00:58:49;15.07;;;6.20;;
59006;SDS011;44792;52.760;6.726;2023-08-01T01:01:15;11.25;;;6.15;;
59006;SDS011;44792;52.760;6.726;2023-08-01T01:03:40;9.30;;;5.15;;
59006;SDS011;44792;52.760;6.726;2023-08-01T01:08:44;12.38;;;5.50;;
59006;SDS011;44792;52.760;6.726;2023-08-01T01:11:10;11.05;;;5.05;;
59006;SDS011;44792;52.760;6.726;2023-08-01T01:13:36;11.80;;;5.20;;
59006;SDS011;44792;52.760;6.726;2023-08-01T01:16:02;6.07;;;4.97;;
59006;SDS011;44792;52.760;6.726;2023-08-01T01:18:28;8.40;;;4.90;;
59006;SDS011;44792;52.760;6.726;2023-08-01T01:20:53;14.57;;;5.10;;
59006;SDS011;44792;52.760;6.726;2023-08-01T01:23:19;10.50;;;5.32;;
59006;SDS011;44792;52.760;6.726;2023-08-01T01:25:47;10.13;;;4.70;;
59006;SDS011;44792;52.760;6.726;2023-08-01T01:28:18;13.55;;;5.00;;
59006;SDS011;44792;52.760;6.726;2023-08-01T01:30:45;10.38;;;5.25;;
59006;SDS011;44792;52.760;6.726;2023-08-01T01:33:12;8.18;;;4.40;;
59006;SDS011;44792;52.760;6.726;2023-08-01T01:35:40;13.40;;;4.85;;
59006;SDS011;44792;52.760;6.726;2023-08-01T01:38:06;7.00;;;4.30;;
59006;SDS011;44792;52.760;6.726;2023-08-01T01:40:32;8.98;;;4.65;;
59006;SDS011;44792;52.760;6.726;2023-08-01T01:42:58;10.10;;;4.38;;
59006;SDS011;44792;52.760;6.726;2023-08-01T01:45:24;7.85;;;5.00;;
59006;SDS011;44792;52.760;6.726;2023-08-01T01:47:50;9.65;;;4.75;;
59006;SDS011;44792;52.760;6.726;2023-08-01T01:50:16;6.82;;;5.13;;
59006;SDS011;44792;52.760;6.726;2023-08-01T01:52:43;9.43;;;5.05;;
59006;SDS011;44792;52.760;6.726;2023-08-01T01:55:09;11.52;;;5.25;;
59006;SDS011;44792;52.760;6.726;2023-08-01T01:57:35;8.80;;;4.43;;
59006;SDS011;44792;52.760;6.726;2023-08-01T02:00:05;14.48;;;4.88;;
59006;SDS011;44792;52.760;6.726;2023-08-01T02:02:35;13.55;;;4.93;;
59006;SDS011;44792;52.760;6.726;2023-08-01T02:05:01;9.43;;;4.50;;
59006;SDS011;44792;52.760;6.726;2023-08-01T02:07:29;7.40;;;4.75;;
59006;SDS011;44792;52.760;6.726;2023-08-01T02:09:54;8.73;;;4.00;;
59006;SDS011;44792;52.760;6.726;2023-08-01T02:12:20;11.68;;;4.28;;
59006;SDS011;44792;52.760;6.726;2023-08-01T02:14:46;10.02;;;4.18;;
59006;SDS011;44792;52.760;6.726;2023-08-01T02:17:12;10.25;;;4.97;;
59006;SDS011;44792;52.760;6.726;2023-08-01T02:19:37;9.43;;;4.30;;
59006;SDS011;44792;52.760;6.726;2023-08-01T02:22:03;11.27;;;4.25;;
59006;SDS011;44792;52.760;6.726;2023-08-01T02:24:29;11.65;;;5.00;;
59006;SDS011;44792;52.760;6.726;2023-08-01T02:26:55;8.52;;;4.57;;
59006;SDS011;44792;52.760;6.726;2023-08-01T02:29:20;10.43;;;4.53;;
59006;SDS011;44792;52.760;6.726;2023-08-01T02:31:46;14.35;;;4.97;;
59006;SDS011;44792;52.760;6.726;2023-08-01T02:34:12;10.90;;;4.72;;
59006;SDS011;44792;52.760;6.726;2023-08-01T02:36:38;8.98;;;4.75;;
59006;SDS011;44792;52.760;6.726;2023-08-01T02:39:05;8.00;;;4.38;;
59006;SDS011;44792;52.760;6.726;2023-08-01T02:41:31;12.70;;;4.68;;
59006;SDS011;44792;52.760;6.726;2023-08-01T02:43:57;13.38;;;4.40;;
59006;SDS011;44792;52.760;6.726;2023-08-01T02:46:23;9.00;;;4.68;;
59006;SDS011;44792;52.760;6.726;2023-08-01T02:48:49;8.20;;;4.50;;
59006;SDS011;44792;52.760;6.726;2023-08-01T02:51:15;12.27;;;4.30;;
59006;SDS011;44792;52.760;6.726;2023-08-01T02:53:40;10.93;;;4.50;;
59006;SDS011;44792;52.760;6.726;2023-08-01T02:56:06;11.48;;;4.22;;
59006;SDS011;44792;52.760;6.726;2023-08-01T02:58:35;9.48;;;4.13;;
59006;SDS011;44792;52.760;6.726;2023-08-01T03:01:01;11.60;;;4.20;;
59006;SDS011;44792;52.760;6.726;2023-08-01T03:03:32;8.00;;;3.70;;
59006;SDS011;44792;52.760;6.726;2023-08-01T03:05:57;8.98;;;4.38;;
59006;SDS011;44792;52.760;6.726;2023-08-01T03:08:24;9.95;;;4.00;;
59006;SDS011;44792;52.760;6.726;2023-08-01T03:10:50;7.40;;;4.07;;
59006;SDS011;44792;52.760;6.726;2023-08-01T03:13:16;12.35;;;3.88;;
59006;SDS011;44792;52.760;6.726;2023-08-01T03:15:41;7.93;;;3.75;;
59006;SDS011;44792;52.760;6.726;2023-08-01T03:18:07;7.85;;;3.70;;
59006;SDS011;44792;52.760;6.726;2023-08-01T03:20:33;8.40;;;4.05;;
59006;SDS011;44792;52.760;6.726;2023-08-01T03:22:59;9.05;;;4.30;;
59006;SDS011;44792;52.760;6.726;2023-08-01T03:25:24;11.25;;;3.58;;
59006;SDS011;44792;52.760;6.726;2023-08-01T03:27:50;12.77;;;4.43;;
59006;SDS011;44792;52.760;6.726;2023-08-01T03:30:16;9.43;;;4.10;;
59006;SDS011;44792;52.760;6.726;2023-08-01T03:32:41;9.82;;;4.07;;
59006;SDS011;44792;52.760;6.726;2023-08-01T03:35:07;8.23;;;4.03;;
59006;SDS011;44792;52.760;6.726;2023-08-01T03:37:33;9.32;;;4.00;;
59006;SDS011;44792;52.760;6.726;2023-08-01T03:39:59;12.27;;;4.47;;
59006;SDS011;44792;52.760;6.726;2023-08-01T03:42:24;7.65;;;3.22;;
59006;SDS011;44792;52.760;6.726;2023-08-01T03:44:50;10.93;;;4.10;;
59006;SDS011;44792;52.760;6.726;2023-08-01T03:47:16;10.20;;;3.92;;
59006;SDS011;44792;52.760;6.726;2023-08-01T03:49:41;11.32;;;4.10;;
59006;SDS011;44792;52.760;6.726;2023-08-01T03:52:07;9.98;;;3.78;;
59006;SDS011;44792;52.760;6.726;2023-08-01T03:54:33;12.68;;;4.13;;
59006;SDS011;44792;52.760;6.726;2023-08-01T03:56:59;9.25;;;3.90;;
59006;SDS011;44792;52.760;6.726;2023-08-01T03:59:24;11.13;;;4.40;;
59006;SDS011;44792;52.760;6.726;2023-08-01T04:01:51;12.52;;;4.53;;
59006;SDS011;44792;52.760;6.726;2023-08-01T04:04:17;5.82;;;3.47;;
59006;SDS011;44792;52.760;6.726;2023-08-01T04:06:42;4.20;;;2.45;;
59006;SDS011;44792;52.760;6.726;2023-08-01T04:09:08;9.02;;;3.17;;
59006;SDS011;44792;52.760;6.726;2023-08-01T04:11:34;7.18;;;3.00;;
59006;SDS011;44792;52.760;6.726;2023-08-01T04:13:59;3.05;;;2.50;;
59006;SDS011;44792;52.760;6.726;2023-08-01T04:16:25;1.80;;;1.48;;
59006;SDS011;44792;52.760;6.726;2023-08-01T04:18:51;6.88;;;2.35;;
59006;SDS011;44792;52.760;6.726;2023-08-01T04:21:17;3.80;;;1.90;;
59006;SDS011;44792;52.760;6.726;2023-08-01T04:23:43;2.83;;;1.55;;
59006;SDS011;44792;52.760;6.726;2023-08-01T04:26:09;3.55;;;1.55;;
59006;SDS011;44792;52.760;6.726;2023-08-01T04:28:35;3.88;;;1.75;;
59006;SDS011;44792;52.760;6.726;2023-08-01T04:31:01;3.05;;;1.75;;
59006;SDS011;44792;52.760;6.726;2023-08-01T04:33:26;3.53;;;1.60;;
59006;SDS011;44792;52.760;6.726;2023-08-01T04:35:52;4.72;;;2.28;;
59006;SDS011;44792;52.760;6.726;2023-08-01T04:38:18;3.85;;;1.10;;
59006;SDS011;44792;52.760;6.726;2023-08-01T04:40:44;1.40;;;1.10;;
59006;SDS011;44792;52.760;6.726;2023-08-01T04:43:12;2.88;;;1.50;;
59006;SDS011;44792;52.760;6.726;2023-08-01T04:45:38;5.70;;;1.77;;
59006;SDS011;44792;52.760;6.726;2023-08-01T04:48:04;2.85;;;1.10;;
59006;SDS011;44792;52.760;6.726;2023-08-01T04:50:30;1.27;;;1.15;;
59006;SDS011;44792;52.760;6.726;2023-08-01T04:52:55;3.03;;;1.30;;
59006;SDS011;44792;52.760;6.726;2023-08-01T04:55:21;3.15;;;1.30;;
59006;SDS011;44792;52.760;6.726;2023-08-01T04:57:47;3.95;;;1.55;;
59006;SDS011;44792;52.760;6.726;2023-08-01T05:00:13;2.65;;;1.30;;
59006;SDS011;44792;52.760;6.726;2023-08-01T05:02:39;3.05;;;1.20;;
59006;SDS011;44792;52.760;6.726;2023-08-01T05:05:05;1.60;;;1.38;;
59006;SDS011;44792;52.760;6.726;2023-08-01T05:07:31;2.80;;;1.30;;
59006;SDS011;44792;52.760;6.726;2023-08-01T05:09:56;3.45;;;1.55;;
59006;SDS011;44792;52.760;6.726;2023-08-01T05:12:22;4.22;;;1.80;;
59006;SDS011;44792;52.760;6.726;2023-08-01T05:14:48;5.68;;;1.77;;
59006;SDS011;44792;52.760;6.726;2023-08-01T05:17:13;4.15;;;1.75;;
59006;SDS011;44792;52.760;6.726;2023-08-01T05:19:39;2.10;;;1.38;;
59006;SDS011;44792;52.760;6.726;2023-08-01T05:22:05;3.58;;;2.00;;
59006;SDS011;44792;52.760;6.726;2023-08-01T05:24:31;3.75;;;1.80;;
59006;SDS011;44792;52.760;6.726;2023-08-01T05:26:56;4.20;;;1.60;;
59006;SDS011;44792;52.760;6.726;2023-08-01T05:29:22;3.85;;;1.45;;
59006;SDS011;44792;52.760;6.726;2023-08-01T05:31:49;4.72;;;1.50;;
59006;SDS011;44792;52.760;6.726;2023-08-01T05:34:14;3.33;;;1.65;;
59006;SDS011;44792;52.760;6.726;2023-08-01T05:36:40;4.13;;;1.50;;
59006;SDS011;44792;52.760;6.726;2023-08-01T05:39:06;5.43;;;1.92;;
59006;SDS011;44792;52.760;6.726;2023-08-01T05:41:32;2.38;;;1.50;;
59006;SDS011;44792;52.760;6.726;2023-08-01T05:43:58;2.50;;;1.85;;
59006;SDS011;44792;52.760;6.726;2023-08-01T05:46:24;3.03;;;1.77;;
59006;SDS011;44792;52.760;6.726;2023-08-01T05:48:49;5.13;;;2.35;;
59006;SDS011;44792;52.760;6.726;2023-08-01T05:51:15;4.75;;;1.92;;
59006;SDS011;44792;52.760;6.726;2023-08-01T05:53:41;4.75;;;2.13;;
59006;SDS011;44792;52.760;6.726;2023-08-01T05:56:06;4.97;;;2.05;;
59006;SDS011;44792;52.760;6.726;2023-08-01T05:58:32;4.25;;;1.90;;
59006;SDS011;44792;52.760;6.726;2023-08-01T06:00:58;4.47;;;2.15;;
59006;SDS011;44792;52.760;6.726;2023-08-01T06:03:24;2.95;;;1.70;;
59006;SDS011;44792;52.760;6.726;2023-08-01T06:05:49;3.08;;;1.80;;
59006;SDS011;44792;52.760;6.726;2023-08-01T06:08:15;3.80;;;1.67;;
59006;SDS011;44792;52.760;6.726;2023-08-01T06:10:41;6.47;;;1.60;;
59006;SDS011;44792;52.760;6.726;2023-08-01T06:13:07;4.85;;;1.80;;
59006;SDS011;44792;52.760;6.726;2023-08-01T06:15:33;3.47;;;1.48;;
59006;SDS011;44792;52.760;6.726;2023-08-01T06:17:59;2.05;;;1.02;;
59006;SDS011;44792;52.760;6.726;2023-08-01T06:20:25;3.88;;;1.40;;
59006;SDS011;44792;52.760;6.726;2023-08-01T06:22:51;3.83;;;1.70;;
59006;SDS011;44792;52.760;6.726;2023-08-01T06:25:17;3.83;;;1.40;;
59006;SDS011;44792;52.760;6.726;2023-08-01T06:27:42;4.45;;;1.90;;
59006;SDS011;44792;52.760;6.726;2023-08-01T06:30:08;4.03;;;1.60;;
59006;SDS011;44792;52.760;6.726;2023-08-01T06:32:35;2.97;;;1.70;;
59006;SDS011;44792;52.760;6.726;2023-08-01T06:35:00;4.35;;;1.70;;
59006;SDS011;44792;52.760;6.726;2023-08-01T06:37:26;3.63;;;1.90;;
59006;SDS011;44792;52.760;6.726;2023-08-01T06:39:52;3.33;;;1.95;;
59006;SDS011;44792;52.760;6.726;2023-08-01T06:42:18;6.68;;;2.17;;
59006;SDS011;44792;52.760;6.726;2023-08-01T06:44:45;6.22;;;2.28;;
59006;SDS011;44792;52.760;6.726;2023-08-01T06:47:11;4.85;;;2.00;;
59006;SDS011;44792;52.760;6.726;2023-08-01T06:49:36;5.03;;;2.70;;
59006;SDS011;44792;52.760;6.726;2023-08-01T06:52:02;6.68;;;3.10;;
59006;SDS011;44792;52.760;6.726;2023-08-01T06:54:28;5.07;;;2.67;;
59006;SDS011;44792;52.760;6.726;2023-08-01T06:56:54;5.28;;;2.78;;
59006;SDS011;44792;52.760;6.726;2023-08-01T06:59:19;9.80;;;3.03;;
59006;SDS011;44792;52.760;6.726;2023-08-01T07:01:45;3.25;;;2.03;;
59006;SDS011;44792;52.760;6.726;2023-08-01T07:04:11;3.65;;;2.08;;
59006;SDS011;44792;52.760;6.726;2023-08-01T07:06:37;6.80;;;3.45;;
59006;SDS011;44792;52.760;6.726;2023-08-01T07:09:02;4.68;;;1.88;;
59006;SDS011;44792;52.760;6.726;2023-08-01T07:11:28;6.68;;;2.60;;
59006;SDS011;44792;52.760;6.726;2023-08-01T07:13:54;7.10;;;2.30;;
59006;SDS011;44792;52.760;6.726;2023-08-01T07:16:20;4.88;;;2.08;;
59006;SDS011;44792;52.760;6.726;2023-08-01T07:18:45;5.53;;;2.38;;
59006;SDS011;44792;52.760;6.726;2023-08-01T07:21:13;4.47;;;2.03;;
59006;SDS011;44792;52.760;6.726;2023-08-01T07:23:39;5.90;;;3.08;;
59006;SDS011;44792;52.760;6.726;2023-08-01T07:26:06;5.95;;;2.60;;
59006;SDS011;44792;52.760;6.726;2023-08-01T07:28:31;6.03;;;2.28;;
59006;SDS011;44792;52.760;6.726;2023-08-01T07:31:01;6.78;;;2.20;;
59006;SDS011;44792;52.760;6.726;2023-08-01T07:35:55;3.63;;;1.88;;
59006;SDS011;44792;52.760;6.726;2023-08-01T07:38:21;6.68;;;2.30;;
59006;SDS011;44792;52.760;6.726;2023-08-01T07:40:47;7.57;;;2.13;;
59006;SDS011;44792;52.760;6.726;2023-08-01T07:43:13;4.88;;;2.10;;
59006;SDS011;44792;52.760;6.726;2023-08-01T07:45:38;6.07;;;2.33;;
59006;SDS011;44792;52.760;6.726;2023-08-01T07:48:04;4.70;;;1.90;;
59006;SDS011;44792;52.760;6.726;2023-08-01T07:50:30;3.53;;;1.70;;
59006;SDS011;44792;52.760;6.726;2023-08-01T07:52:56;8.40;;;2.33;;
59006;SDS011;44792;52.760;6.726;2023-08-01T07:55:22;7.25;;;2.30;;
59006;SDS011;44792;52.760;6.726;2023-08-01T07:57:48;5.68;;;2.45;;
59006;SDS011;44792;52.760;6.726;2023-08-01T08:00:14;6.60;;;2.03;;
59006;SDS011;44792;52.760;6.726;2023-08-01T08:02:43;4.60;;;2.22;;
59006;SDS011;44792;52.760;6.726;2023-08-01T08:05:10;5.88;;;2.08;;
59006;SDS011;44792;52.760;6.726;2023-08-01T08:07:36;4.97;;;1.90;;
59006;SDS011;44792;52.760;6.726;2023-08-01T08:10:03;3.20;;;1.98;;
59006;SDS011;44792;52.760;6.726;2023-08-01T08:12:29;7.05;;;2.22;;
59006;SDS011;44792;52.760;6.726;2023-08-01T08:14:55;6.03;;;2.00;;
59006;SDS011;44792;52.760;6.726;2023-08-01T08:17:20;4.10;;;1.75;;
59006;SDS011;44792;52.760;6.726;2023-08-01T08:19:46;4.68;;;2.30;;
59006;SDS011;44792;52.760;6.726;2023-08-01T08:22:12;5.00;;;1.75;;
59006;SDS011;44792;52.760;6.726;2023-08-01T08:24:37;5.03;;;1.92;;
59006;SDS011;44792;52.760;6.726;2023-08-01T08:27:03;3.80;;;1.83;;
59006;SDS011;44792;52.760;6.726;2023-08-01T08:29:30;5.43;;;1.98;;
59006;SDS011;44792;52.760;6.726;2023-08-01T08:31:56;3.88;;;1.88;;
59006;SDS011;44792;52.760;6.726;2023-08-01T08:34:22;5.57;;;1.80;;
59006;SDS011;44792;52.760;6.726;2023-08-01T08:36:48;11.55;;;2.17;;
59006;SDS011;44792;52.760;6.726;2023-08-01T08:39:15;5.93;;;2.00;;
59006;SDS011;44792;52.760;6.726;2023-08-01T08:41:45;5.32;;;1.98;;
59006;SDS011;44792;52.760;6.726;2023-08-01T08:44:16;5.95;;;2.22;;
59006;SDS011;44792;52.760;6.726;2023-08-01T08:46:43;4.68;;;2.50;;
59006;SDS011;44792;52.760;6.726;2023-08-01T08:49:09;5.18;;;1.88;;
59006;SDS011;44792;52.760;6.726;2023-08-01T08:51:37;6.93;;;2.33;;
59006;SDS011;44792;52.760;6.726;2023-08-01T08:54:03;5.82;;;2.20;;
59006;SDS011;44792;52.760;6.726;2023-08-01T08:56:30;4.32;;;2.03;;
59006;SDS011;44792;52.760;6.726;2023-08-01T08:58:56;11.55;;;2.97;;
59006;SDS011;44792;52.760;6.726;2023-08-01T09:01:24;6.70;;;2.53;;
59006;SDS011;44792;52.760;6.726;2023-08-01T09:03:49;6.47;;;2.35;;
59006;SDS011;44792;52.760;6.726;2023-08-01T09:06:16;6.30;;;2.90;;
59006;SDS011;44792;52.760;6.726;2023-08-01T09:08:49;5.20;;;2.33;;
59006;SDS011;44792;52.760;6.726;2023-08-01T09:11:17;9.13;;;2.75;;
59006;SDS011;44792;52.760;6.726;2023-08-01T09:13:43;5.88;;;2.67;;
59006;SDS011;44792;52.760;6.726;2023-08-01T09:16:09;9.85;;;2.70;;
59006;SDS011;44792;52.760;6.726;2023-08-01T09:18:50;11.07;;;2.60;;
59006;SDS011;44792;52.760;6.726;2023-08-01T09:21:20;5.47;;;2.17;;
59006;SDS011;44792;52.760;6.726;2023-08-01T09:23:46;11.60;;;2.88;;
59006;SDS011;44792;52.760;6.726;2023-08-01T09:26:15;6.18;;;2.45;;
59006;SDS011;44792;52.760;6.726;2023-08-01T09:28:42;7.80;;;2.65;;
59006;SDS011;44792;52.760;6.726;2023-08-01T09:31:09;6.40;;;1.90;;
59006;SDS011;44792;52.760;6.726;2023-08-01T09:33:42;3.90;;;1.63;;
59006;SDS011;44792;52.760;6.726;2023-08-01T09:36:08;6.38;;;2.00;;
59006;SDS011;44792;52.760;6.726;2023-08-01T09:38:34;7.40;;;1.90;;
59006;SDS011;44792;52.760;6.726;2023-08-01T09:41:02;3.10;;;1.83;;
59006;SDS011;44792;52.760;6.726;2023-08-01T09:43:35;6.65;;;1.85;;
59006;SDS011;44792;52.760;6.726;2023-08-01T09:46:02;3.17;;;2.00;;
59006;SDS011;44792;52.760;6.726;2023-08-01T09:48:29;5.97;;;1.92;;
59006;SDS011;44792;52.760;6.726;2023-08-01T09:51:08;4.53;;;1.90;;
59006;SDS011;44792;52.760;6.726;2023-08-01T09:53:48;6.65;;;2.00;;
59006;SDS011;44792;52.760;6.726;2023-08-01T09:56:24;5.10;;;2.08;;
59006;SDS011;44792;52.760;6.726;2023-08-01T09:58:52;2.63;;;1.67;;
59006;SDS011;44792;52.760;6.726;2023-08-01T10:01:20;8.25;;;2.63;;
59006;SDS011;44792;52.760;6.726;2023-08-01T10:03:52;5.35;;;2.25;;
59006;SDS011;44792;52.760;6.726;2023-08-01T10:06:19;5.57;;;2.20;;
59006;SDS011;44792;52.760;6.726;2023-08-01T10:08:47;6.35;;;1.90;;
59006;SDS011;44792;52.760;6.726;2023-08-01T10:11:14;7.28;;;2.28;;
59006;SDS011;44792;52.760;6.726;2023-08-01T10:13:42;7.20;;;2.22;;
59006;SDS011;44792;52.760;6.726;2023-08-01T10:16:09;3.15;;;2.00;;
59006;SDS011;44792;52.760;6.726;2023-08-01T10:18:35;6.38;;;2.70;;
59006;SDS011;44792;52.760;6.726;2023-08-01T10:21:05;7.15;;;2.60;;
59006;SDS011;44792;52.760;6.726;2023-08-01T10:23:41;8.05;;;2.58;;
59006;SDS011;44792;52.760;6.726;2023-08-01T10:26:09;8.13;;;2.20;;
59006;SDS011;44792;52.760;6.726;2023-08-01T10:28:37;5.35;;;2.35;;
59006;SDS011;44792;52.760;6.726;2023-08-01T10:31:11;6.07;;;2.50;;
59006;SDS011;44792;52.760;6.726;2023-08-01T10:33:41;8.95;;;2.80;;
59006;SDS011;44792;52.760;6.726;2023-08-01T10:36:15;8.73;;;3.80;;
59006;SDS011;44792;52.760;6.726;2023-08-01T10:38:46;7.53;;;2.10;;
59006;SDS011;44792;52.760;6.726;2023-08-01T10:43:45;5.65;;;2.20;;
59006;SDS011;44792;52.760;6.726;2023-08-01T10:46:11;5.20;;;1.65;;
59006;SDS011;44792;52.760;6.726;2023-08-01T10:48:57;3.90;;;1.90;;
59006;SDS011;44792;52.760;6.726;2023-08-01T10:51:22;3.85;;;1.90;;
59006;SDS011;44792;52.760;6.726;2023-08-01T10:53:48;6.65;;;1.77;;
59006;SDS011;44792;52.760;6.726;2023-08-01T10:56:20;6.93;;;2.03;;
59006;SDS011;44792;52.760;6.726;2023-08-01T10:58:46;4.43;;;1.60;;
59006;SDS011;44792;52.760;6.726;2023-08-01T11:01:12;6.35;;;2.15;;
59006;SDS011;44792;52.760;6.726;2023-08-01T11:03:39;7.63;;;2.00;;
59006;SDS011;44792;52.760;6.726;2023-08-01T11:06:05;9.80;;;1.90;;
59006;SDS011;44792;52.760;6.726;2023-08-01T11:08:34;5.50;;;1.98;;
59006;SDS011;44792;52.760;6.726;2023-08-01T11:11:00;5.20;;;1.85;;
59006;SDS011;44792;52.760;6.726;2023-08-01T11:13:26;4.95;;;1.70;;
59006;SDS011;44792;52.760;6.726;2023-08-01T11:15:52;3.05;;;1.60;;
59006;SDS011;44792;52.760;6.726;2023-08-01T11:18:21;5.47;;;1.70;;
59006;SDS011;44792;52.760;6.726;2023-08-01T11:20:47;3.78;;;1.67;;
59006;SDS011;44792;52.760;6.726;2023-08-01T11:23:12;4.85;;;1.38;;
59006;SDS011;44792;52.760;6.726;2023-08-01T11:25:42;3.45;;;1.67;;
59006;SDS011;44792;52.760;6.726;2023-08-01T11:28:11;5.38;;;1.30;;
59006;SDS011;44792;52.760;6.726;2023-08-01T11:30:41;5.47;;;1.52;;
59006;SDS011;44792;52.760;6.726;2023-08-01T11:33:20;4.43;;;1.60;;
59006;SDS011;44792;52.760;6.726;2023-08-01T11:35:53;7.13;;;1.70;;
59006;SDS011;44792;52.760;6.726;2023-08-01T11:38:25;5.78;;;1.75;;
59006;SDS011;44792;52.760;6.726;2023-08-01T11:40:54;8.23;;;2.33;;
59006;SDS011;44792;52.760;6.726;2023-08-01T11:43:22;9.77;;;2.13;;
59006;SDS011;44792;52.760;6.726;2023-08-01T11:45:51;5.30;;;1.77;;
59006;SDS011;44792;52.760;6.726;2023-08-01T11:48:19;10.67;;;2.20;;
59006;SDS011;44792;52.760;6.726;2023-08-01T11:50:46;5.05;;;1.45;;
59006;SDS011;44792;52.760;6.726;2023-08-01T11:53:21;4.32;;;1.40;;
59006;SDS011;44792;52.760;6.726;2023-08-01T11:55:48;3.58;;;1.33;;
59006;SDS011;44792;52.760;6.726;2023-08-01T11:58:14;6.68;;;1.55;;
59006;SDS011;44792;52.760;6.726;2023-08-01T12:00:40;10.02;;;2.30;;
59006;SDS011;44792;52.760;6.726;2023-08-01T12:03:07;10.80;;;1.98;;
59006;SDS011;44792;52.760;6.726;2023-08-01T12:05:38;5.60;;;1.63;;
59006;SDS011;44792;52.760;6.726;2023-08-01T12:08:10;4.70;;;1.48;;
59006;SDS011;44792;52.760;6.726;2023-08-01T12:10:40;3.85;;;1.58;;
59006;SDS011;44792;52.760;6.726;2023-08-01T14:10:44;2.78;;;1.10;;
59006;SDS011;44792;52.760;6.726;2023-08-01T14:13:09;3.90;;;1.52;;
59006;SDS011;44792;52.760;6.726;2023-08-01T14:15:35;7.30;;;1.67;;
59006;SDS011;44792;52.760;6.726;2023-08-01T14:18:01;5.53;;;1.30;;
59006;SDS011;44792;52.760;6.726;2023-08-01T14:20:26;3.17;;;1.00;;
59006;SDS011;44792;52.760;6.726;2023-08-01T14:22:52;4.53;;;1.13;;
59006;SDS011;44792;52.760;6.726;2023-08-01T14:25:18;3.90;;;1.27;;
59006;SDS011;44792;52.760;6.726;2023-08-01T14:27:43;3.33;;;1.40;;
59006;SDS011;44792;52.760;6.726;2023-08-01T14:30:09;3.20;;;1.00;;
59006;SDS011;44792;52.760;6.726;2023-08-01T14:32:36;4.00;;;1.10;;
59006;SDS011;44792;52.760;6.726;2023-08-01T14:35:03;3.33;;;1.10;;
59006;SDS011;44792;52.760;6.726;2023-08-01T14:37:29;4.80;;;1.35;;
59006;SDS011;44792;52.760;6.726;2023-08-01T14:39:55;4.65;;;1.50;;
59006;SDS011;44792;52.760;6.726;2023-08-01T14:42:20;3.25;;;1.40;;
59006;SDS011;44792;52.760;6.726;2023-08-01T14:44:51;1.92;;;0.98;;
59006;SDS011;44792;52.760;6.726;2023-08-01T14:47:20;2.53;;;0.95;;
59006;SDS011;44792;52.760;6.726;2023-08-01T14:49:46;5.10;;;1.23;;
59006;SDS011;44792;52.760;6.726;2023-08-01T14:52:11;5.30;;;1.10;;
59006;SDS011;44792;52.760;6.726;2023-08-01T14:54:37;4.45;;;1.20;;
59006;SDS011;44792;52.760;6.726;2023-08-01T14:57:03;5.20;;;1.13;;
59006;SDS011;44792;52.760;6.726;2023-08-01T14:59:29;4.18;;;0.90;;
59006;SDS011;44792;52.760;6.726;2023-08-01T15:01:56;1.75;;;0.90;;
59006;SDS011;44792;52.760;6.726;2023-08-01T15:04:21;2.00;;;0.90;;
59006;SDS011;44792;52.760;6.726;2023-08-01T15:06:47;4.10;;;1.13;;
59006;SDS011;44792;52.760;6.726;2023-08-01T15:09:13;3.38;;;1.17;;
59006;SDS011;44792;52.760;6.726;2023-08-01T15:11:39;1.83;;;1.20;;
59006;SDS011;44792;52.760;6.726;2023-08-01T15:14:04;1.85;;;0.77;;
59006;SDS011;44792;52.760;6.726;2023-08-01T15:16:30;4.18;;;1.08;;
59006;SDS011;44792;52.760;6.726;2023-08-01T15:18:56;3.38;;;0.85;;
59006;SDS011;44792;52.760;6.726;2023-08-01T15:21:21;2.60;;;1.13;;
59006;SDS011;44792;52.760;6.726;2023-08-01T15:23:50;1.02;;;0.68;;
59006;SDS011;44792;52.760;6.726;2023-08-01T15:26:17;3.42;;;0.90;;
59006;SDS011;44792;52.760;6.726;2023-08-01T15:28:43;4.13;;;0.93;;
59006;SDS011;44792;52.760;6.726;2023-08-01T15:31:09;3.75;;;1.00;;
59006;SDS011;44792;52.760;6.726;2023-08-01T15:33:36;1.65;;;0.93;;
59006;SDS011;44792;52.760;6.726;2023-08-01T15:36:03;2.88;;;1.58;;
59006;SDS011;44792;52.760;6.726;2023-08-01T15:38:30;2.30;;;0.77;;
59006;SDS011;44792;52.760;6.726;2023-08-01T15:40:56;1.63;;;0.85;;
59006;SDS011;44792;52.760;6.726;2023-08-01T15:43:23;2.85;;;0.80;;
59006;SDS011;44792;52.760;6.726;2023-08-01T15:45:50;3.30;;;0.90;;
59006;SDS011;44792;52.760;6.726;2023-08-01T15:48:16;5.88;;;1.50;;
59006;SDS011;44792;52.760;6.726;2023-08-01T15:50:42;4.70;;;1.30;;
59006;SDS011;44792;52.760;6.726;2023-08-01T15:53:07;1.90;;;1.05;;
59006;SDS011;44792;52.760;6.726;2023-08-01T15:55:33;1.15;;;0.73;;
59006;SDS011;44792;52.760;6.726;2023-08-01T15:57:59;2.90;;;1.00;;
59006;SDS011;44792;52.760;6.726;2023-08-01T16:00:25;2.10;;;0.90;;
59006;SDS011;44792;52.760;6.726;2023-08-01T16:02:50;4.65;;;1.38;;
59006;SDS011;44792;52.760;6.726;2023-08-01T16:05:16;2.40;;;1.15;;
59006;SDS011;44792;52.760;6.726;2023-08-01T16:07:42;2.47;;;1.08;;
59006;SDS011;44792;52.760;6.726;2023-08-01T16:10:07;4.78;;;1.60;;
59006;SDS011;44792;52.760;6.726;2023-08-01T16:12:33;2.95;;;1.25;;
59006;SDS011;44792;52.760;6.726;2023-08-01T16:14:59;7.15;;;1.52;;
59006;SDS011;44792;52.760;6.726;2023-08-01T16:17:24;5.15;;;1.27;;
59006;SDS011;44792;52.760;6.726;2023-08-01T16:19:50;4.85;;;1.30;;
59006;SDS011;44792;52.760;6.726;2023-08-01T16:22:16;5.18;;;1.27;;
59006;SDS011;44792;52.760;6.726;2023-08-01T16:24:42;7.55;;;1.85;;
59006;SDS011;44792;52.760;6.726;2023-08-01T16:27:07;6.28;;;2.15;;
59006;SDS011;44792;52.760;6.726;2023-08-01T16:29:33;5.28;;;1.45;;
59006;SDS011;44792;52.760;6.726;2023-08-01T16:31:59;4.57;;;1.38;;
59006;SDS011;44792;52.760;6.726;2023-08-01T16:34:25;7.30;;;1.60;;
59006;SDS011;44792;52.760;6.726;2023-08-01T16:36:51;4.70;;;1.63;;
59006;SDS011;44792;52.760;6.726;2023-08-01T16:39:17;4.22;;;1.42;;
59006;SDS011;44792;52.760;6.726;2023-08-01T16:41:43;2.33;;;1.33;;
59006;SDS011;44792;52.760;6.726;2023-08-01T16:44:09;7.00;;;1.73;;
59006;SDS011;44792;52.760;6.726;2023-08-01T16:46:34;3.28;;;1.58;;